createdAt,value
2018-02-10T00:00:00.493Z,0
2018-02-10T00:01:22.634Z,0
2018-02-10T00:02:44.896Z,0
2018-02-10T00:04:07.021Z,0
2018-02-10T00:05:29.137Z,0
2018-02-10T00:06:51.406Z,0
2018-02-10T00:08:13.610Z,0
2018-02-10T00:09:36.003Z,0
2018-02-10T00:10:57.894Z,0
2018-02-10T00:12:20.024Z,0
2018-02-10T00:13:41.896Z,0
2018-02-10T00:15:03.772Z,0
2018-02-10T00:16:25.885Z,0
2018-02-10T00:17:47.516Z,0
2018-02-10T00:19:09.647Z,0
2018-02-10T00:20:31.371Z,0
2018-02-10T00:21:53.171Z,0
2018-02-10T00:23:15.113Z,0
2018-02-10T00:24:37.042Z,0
2018-02-10T00:25:58.947Z,0
2018-02-10T00:27:21.090Z,0
2018-02-10T00:28:42.940Z,0
2018-02-10T00:30:05.063Z,0
2018-02-10T00:31:27.207Z,0
2018-02-10T00:32:49.347Z,0
2018-02-10T00:34:11.262Z,0
2018-02-10T00:35:33.395Z,0
2018-02-10T00:36:55.254Z,0
2018-02-10T00:38:16.871Z,0
2018-02-10T00:39:38.797Z,0
2018-02-10T00:41:00.673Z,0
2018-02-10T00:42:22.586Z,0
2018-02-10T00:43:44.682Z,0
2018-02-10T00:45:06.290Z,0
2018-02-10T00:46:28.176Z,0
2018-02-10T00:47:50.334Z,0
2018-02-10T00:49:12.433Z,0
2018-02-10T00:50:34.533Z,0
2018-02-10T00:51:56.704Z,0
2018-02-10T00:53:18.569Z,0
2018-02-10T00:54:40.663Z,0
2018-02-10T00:56:02.753Z,0
2018-02-10T00:57:24.094Z,0
2018-02-10T00:58:45.947Z,0
2018-02-10T01:00:07.552Z,0
2018-02-10T01:01:29.405Z,0
2018-02-10T01:02:51.612Z,0
2018-02-10T01:04:13.714Z,0
2018-02-10T01:05:35.315Z,0
2018-02-10T01:06:57.196Z,0
2018-02-10T01:08:19.341Z,0
2018-02-10T01:09:41.263Z,0
2018-02-10T01:11:03.113Z,0
2018-02-10T01:12:25.225Z,0
2018-02-10T01:13:47.302Z,0
2018-02-10T01:15:08.882Z,0
2018-02-10T01:16:30.976Z,0
2018-02-10T01:17:52.830Z,0
2018-02-10T01:19:14.947Z,0
2018-02-10T01:20:37.068Z,0
2018-02-10T01:21:59.188Z,0
2018-02-10T01:23:21.298Z,0
2018-02-10T01:24:43.410Z,0
2018-02-10T01:26:05.393Z,0
2018-02-10T01:27:27.504Z,0
2018-02-10T01:28:48.842Z,0
2018-02-10T01:30:10.742Z,0
2018-02-10T01:31:32.331Z,0
2018-02-10T01:32:54.444Z,0
2018-02-10T01:34:16.592Z,0
2018-02-10T01:35:38.713Z,0
2018-02-10T01:37:00.307Z,0
2018-02-10T01:38:21.902Z,0
2018-02-10T01:39:43.483Z,0
2018-02-10T01:41:05.327Z,0
2018-02-10T01:42:26.936Z,0
2018-02-10T01:43:48.814Z,0
2018-02-10T01:45:10.945Z,0
2018-02-10T01:46:33.103Z,0
2018-02-10T01:47:55.224Z,0
2018-02-10T01:49:16.825Z,0
2018-02-10T01:50:38.684Z,0
2018-02-10T01:52:00.540Z,0
2018-02-10T01:53:22.445Z,0
2018-02-10T01:54:44.322Z,0
2018-02-10T01:56:05.952Z,0
2018-02-10T01:57:27.808Z,0
2018-02-10T01:58:49.803Z,0
2018-02-10T02:00:11.649Z,0
2018-02-10T02:01:33.813Z,0
2018-02-10T02:02:55.946Z,0
2018-02-10T02:04:17.913Z,0
2018-02-10T02:05:39.778Z,0
2018-02-10T02:07:01.929Z,0
2018-02-10T02:08:24.192Z,0
2018-02-10T02:09:46.431Z,0
2018-02-10T02:11:08.592Z,0
2018-02-10T02:12:30.342Z,0
2018-02-10T02:13:52.203Z,0
2018-02-10T02:15:14.061Z,0
2018-02-10T02:16:36.254Z,0
2018-02-10T02:17:58.320Z,0
2018-02-10T02:19:20.482Z,0
2018-02-10T02:20:42.466Z,0
2018-02-10T02:22:03.831Z,0
2018-02-10T02:23:25.471Z,0
2018-02-10T02:24:47.612Z,0
2018-02-10T02:26:09.328Z,0
2018-02-10T02:27:30.431Z,0
2018-02-10T02:28:52.063Z,0
2018-02-10T02:30:13.961Z,0
2018-02-10T02:31:35.681Z,0
2018-02-10T02:32:57.778Z,0
2018-02-10T02:34:19.653Z,0
2018-02-10T02:35:41.492Z,0
2018-02-10T02:37:03.343Z,0
2018-02-10T02:38:25.194Z,0
2018-02-10T02:39:46.862Z,0
2018-02-10T02:41:08.747Z,0
2018-02-10T02:42:30.335Z,0
2018-02-10T02:43:52.192Z,0
2018-02-10T02:45:14.112Z,0
2018-02-10T02:46:35.701Z,0
2018-02-10T02:47:57.292Z,0
2018-02-10T02:49:18.891Z,0
2018-02-10T02:50:40.761Z,0
2018-02-10T02:52:03.099Z,0
2018-02-10T02:53:24.761Z,0
2018-02-10T02:54:46.396Z,0
2018-02-10T02:56:08.512Z,0
2018-02-10T02:57:30.265Z,0
2018-02-10T02:58:52.219Z,0
2018-02-10T03:00:13.811Z,0
2018-02-10T03:01:35.673Z,0
2018-02-10T03:02:57.671Z,0
2018-02-10T03:04:19.521Z,0
2018-02-10T03:05:41.681Z,0
2018-02-10T03:07:03.870Z,0
2018-02-10T03:08:25.300Z,0
2018-02-10T03:09:47.138Z,0
2018-02-10T03:11:09.122Z,0
2018-02-10T03:12:30.976Z,0
2018-02-10T03:13:52.943Z,0
2018-02-10T03:15:14.563Z,0
2018-02-10T03:16:36.460Z,0
2018-02-10T03:17:58.581Z,0
2018-02-10T03:19:20.214Z,0
2018-02-10T03:20:42.109Z,0
2018-02-10T03:22:03.690Z,0
2018-02-10T03:23:25.620Z,0
2018-02-10T03:24:47.468Z,0
2018-02-10T03:26:09.332Z,0
2018-02-10T03:27:31.464Z,0
2018-02-10T03:28:53.313Z,0
2018-02-10T03:30:15.192Z,0
2018-02-10T03:31:37.421Z,0
2018-02-10T03:32:59.553Z,0
2018-02-10T03:34:21.419Z,0
2018-02-10T03:35:43.023Z,0
2018-02-10T03:37:05.221Z,0
2018-02-10T03:38:27.338Z,0
2018-02-10T03:39:48.944Z,0
2018-02-10T03:41:10.612Z,0
2018-02-10T03:42:32.476Z,0
2018-02-10T03:43:54.077Z,0
2018-02-10T03:45:15.395Z,0
2018-02-10T03:46:37.369Z,0
2018-02-10T03:47:59.480Z,0
2018-02-10T03:49:20.830Z,0
2018-02-10T03:50:42.470Z,0
2018-02-10T03:52:04.310Z,0
2018-02-10T03:53:26.195Z,0
2018-02-10T03:54:48.300Z,0
2018-02-10T03:56:10.150Z,0
2018-02-10T03:57:32.023Z,0
2018-02-10T03:58:53.093Z,0
2018-02-10T04:00:15.207Z,0
2018-02-10T04:01:36.797Z,0
2018-02-10T04:02:58.940Z,0
2018-02-10T04:04:20.783Z,0
2018-02-10T04:05:42.959Z,0
2018-02-10T04:07:04.792Z,0
2018-02-10T04:08:26.649Z,0
2018-02-10T04:09:48.259Z,0
2018-02-10T04:11:09.603Z,0
2018-02-10T04:12:31.731Z,0
2018-02-10T04:13:53.841Z,0
2018-02-10T04:15:15.408Z,0
2018-02-10T04:16:37.000Z,0
2018-02-10T04:17:58.857Z,0
2018-02-10T04:19:20.821Z,0
2018-02-10T04:20:42.664Z,0
2018-02-10T04:22:04.233Z,0
2018-02-10T04:23:26.280Z,0
2018-02-10T04:24:48.301Z,0
2018-02-10T04:26:10.414Z,0
2018-02-10T04:27:32.011Z,0
2018-02-10T04:28:53.740Z,0
2018-02-10T04:30:16.013Z,0
2018-02-10T04:31:37.598Z,0
2018-02-10T04:32:59.191Z,0
2018-02-10T04:34:20.511Z,0
2018-02-10T04:35:42.090Z,0
2018-02-10T04:37:04.032Z,0
2018-02-10T04:38:25.878Z,0
2018-02-10T04:39:47.463Z,0
2018-02-10T04:41:09.331Z,0
2018-02-10T04:42:31.433Z,0
2018-02-10T04:43:53.678Z,0
2018-02-10T04:45:15.523Z,0
2018-02-10T04:46:37.192Z,0
2018-02-10T04:47:59.042Z,0
2018-02-10T04:49:21.005Z,0
2018-02-10T04:50:42.851Z,0
2018-02-10T04:52:04.470Z,0
2018-02-10T04:53:26.339Z,0
2018-02-10T04:54:48.186Z,0
2018-02-10T04:56:09.923Z,0
2018-02-10T04:57:32.152Z,0
2018-02-10T04:58:53.990Z,0
2018-02-10T05:00:15.588Z,0
2018-02-10T05:01:37.170Z,0
2018-02-10T05:02:59.029Z,0
2018-02-10T05:04:21.119Z,0
2018-02-10T05:05:43.030Z,0
2018-02-10T05:07:04.620Z,0
2018-02-10T05:08:26.518Z,0
2018-02-10T05:09:48.613Z,0
2018-02-10T05:11:10.182Z,0
2018-02-10T05:12:31.556Z,0
2018-02-10T05:13:53.149Z,0
2018-02-10T05:15:14.752Z,0
2018-02-10T05:16:36.592Z,0
2018-02-10T05:17:58.277Z,0
2018-02-10T05:19:19.867Z,0
2018-02-10T05:20:42.110Z,0
2018-02-10T05:22:03.966Z,0
2018-02-10T05:23:25.821Z,0
2018-02-10T05:24:47.917Z,0
2018-02-10T05:26:09.510Z,0
2018-02-10T05:27:31.445Z,0
2018-02-10T05:28:53.022Z,0
2018-02-10T05:30:14.104Z,0
2018-02-10T05:31:36.451Z,0
2018-02-10T05:32:58.303Z,0
2018-02-10T05:34:20.263Z,0
2018-02-10T05:35:42.368Z,0
2018-02-10T05:37:03.963Z,0
2018-02-10T05:38:25.939Z,0
2018-02-10T05:39:47.581Z,0
2018-02-10T05:41:09.444Z,0
2018-02-10T05:42:31.589Z,0
2018-02-10T05:43:52.666Z,0
2018-02-10T05:45:14.033Z,0
2018-02-10T05:46:36.023Z,0
2018-02-10T05:47:57.861Z,0
2018-02-10T05:49:19.715Z,0
2018-02-10T05:50:41.310Z,0
2018-02-10T05:52:03.136Z,0
2018-02-10T05:53:25.125Z,0
2018-02-10T05:54:46.971Z,0
2018-02-10T05:56:08.811Z,0
2018-02-10T05:57:30.680Z,0
2018-02-10T05:58:52.559Z,0
2018-02-10T06:00:14.182Z,0
2018-02-10T06:01:35.532Z,0
2018-02-10T06:02:57.387Z,0
2018-02-10T06:04:19.528Z,0
2018-02-10T06:05:41.632Z,0
2018-02-10T06:07:02.960Z,0
2018-02-10T06:08:24.822Z,0
2018-02-10T06:09:46.669Z,0
2018-02-10T06:11:08.530Z,0
2018-02-10T06:12:29.872Z,0
2018-02-10T06:13:51.990Z,0
2018-02-10T06:15:14.185Z,4
2018-02-10T06:16:35.821Z,0
2018-02-10T06:17:57.707Z,0
2018-02-10T06:19:19.695Z,4
2018-02-10T06:20:41.843Z,4
2018-02-10T06:22:04.001Z,4
2018-02-10T06:23:26.131Z,4
2018-02-10T06:24:47.474Z,8
2018-02-10T06:26:09.328Z,8
2018-02-10T06:27:30.904Z,12
2018-02-10T06:28:52.238Z,16
2018-02-10T06:30:13.586Z,16
2018-02-10T06:31:35.742Z,20
2018-02-10T06:32:57.579Z,28
2018-02-10T06:34:18.760Z,32
2018-02-10T06:35:40.103Z,36
2018-02-10T06:37:01.471Z,44
2018-02-10T06:38:23.603Z,52
2018-02-10T06:39:45.211Z,64
2018-02-10T06:41:07.220Z,76
2018-02-10T06:42:29.082Z,88
2018-02-10T06:43:50.939Z,104
2018-02-10T06:45:13.037Z,120
2018-02-10T06:46:35.010Z,144
2018-02-10T06:47:56.883Z,168
2018-02-10T06:49:18.484Z,188
2018-02-10T06:50:40.725Z,212
2018-02-10T06:52:02.330Z,244
2018-02-10T06:53:23.990Z,276
2018-02-10T06:54:45.841Z,312
2018-02-10T06:56:08.014Z,352
2018-02-10T06:57:30.021Z,392
2018-02-10T06:58:51.882Z,432
2018-02-10T07:00:13.480Z,476
2018-02-10T07:01:35.648Z,524
2018-02-10T07:02:57.503Z,576
2018-02-10T07:04:19.373Z,624
2018-02-10T07:05:41.231Z,676
2018-02-10T07:07:03.377Z,732
2018-02-10T07:08:25.250Z,784
2018-02-10T07:09:46.863Z,840
2018-02-10T07:11:08.718Z,892
2018-02-10T07:12:30.661Z,940
2018-02-10T07:13:52.891Z,984
2018-02-10T07:15:14.761Z,1028
2018-02-10T07:16:36.884Z,1080
2018-02-10T07:17:58.584Z,1136
2018-02-10T07:19:20.762Z,1188
2018-02-10T07:20:42.393Z,1256
2018-02-10T07:22:04.000Z,1332
2018-02-10T07:23:26.155Z,1420
2018-02-10T07:24:48.033Z,1512
2018-02-10T07:26:09.167Z,1608
2018-02-10T07:27:31.314Z,1712
2018-02-10T07:28:53.310Z,1824
2018-02-10T07:30:15.432Z,1924
2018-02-10T07:31:37.580Z,2000
2018-02-10T07:32:59.441Z,2076
2018-02-10T07:34:21.551Z,2148
2018-02-10T07:35:43.669Z,2216
2018-02-10T07:37:05.797Z,2288
2018-02-10T07:38:27.650Z,2356
2018-02-10T07:39:49.620Z,2416
2018-02-10T07:41:11.250Z,2476
2018-02-10T07:42:33.089Z,2536
2018-02-10T07:43:55.009Z,2592
2018-02-10T07:45:17.424Z,2660
2018-02-10T07:46:39.313Z,2728
2018-02-10T07:48:01.173Z,2792
2018-02-10T07:49:23.037Z,2860
2018-02-10T07:50:44.849Z,2920
2018-02-10T07:52:06.192Z,2984
2018-02-10T07:53:28.053Z,3052
2018-02-10T07:54:49.916Z,3112
2018-02-10T07:56:12.051Z,3172
2018-02-10T07:57:33.931Z,3216
2018-02-10T07:58:55.650Z,3260
2018-02-10T08:00:16.974Z,3300
2018-02-10T08:01:38.580Z,3352
2018-02-10T08:03:00.451Z,3408
2018-02-10T08:04:22.602Z,3468
2018-02-10T08:05:44.449Z,3516
2018-02-10T08:07:06.167Z,3568
2018-02-10T08:08:28.393Z,3628
2018-02-10T08:09:50.386Z,3684
2018-02-10T08:11:12.597Z,3736
2018-02-10T08:12:34.290Z,3784
2018-02-10T08:13:56.975Z,3836
2018-02-10T08:15:19.692Z,3896
2018-02-10T08:16:42.313Z,3968
2018-02-10T08:18:04.860Z,4036
2018-02-10T08:19:26.988Z,4084
2018-02-10T08:20:48.849Z,4124
2018-02-10T08:22:10.715Z,4148
2018-02-10T08:23:32.843Z,4172
2018-02-10T08:24:54.960Z,4200
2018-02-10T08:26:17.203Z,4252
2018-02-10T08:27:39.071Z,4312
2018-02-10T08:29:01.232Z,4348
2018-02-10T08:30:22.870Z,4356
2018-02-10T08:31:45.309Z,4384
2018-02-10T08:33:07.454Z,4448
2018-02-10T08:34:29.663Z,4504
2018-02-10T08:35:51.801Z,4544
2018-02-10T08:37:13.496Z,4592
2018-02-10T08:38:35.408Z,4728
2018-02-10T08:39:57.322Z,5024
2018-02-10T08:41:19.202Z,5384
2018-02-10T08:42:41.101Z,5688
2018-02-10T08:44:02.958Z,5948
2018-02-10T08:45:24.854Z,6608
2018-02-10T08:46:46.741Z,7212
2018-02-10T08:48:08.963Z,7572
2018-02-10T08:49:30.856Z,7124
2018-02-10T08:50:53.000Z,6520
2018-02-10T08:52:14.352Z,6160
2018-02-10T08:53:36.209Z,5980
2018-02-10T08:54:58.592Z,5856
2018-02-10T08:56:21.320Z,5676
2018-02-10T08:57:42.922Z,5628
2018-02-10T08:59:05.056Z,5588
2018-02-10T09:00:26.669Z,5828
2018-02-10T09:01:48.301Z,6060
2018-02-10T09:03:10.160Z,6140
2018-02-10T09:04:32.337Z,5872
2018-02-10T09:05:54.220Z,5716
2018-02-10T09:07:16.093Z,5932
2018-02-10T09:08:37.731Z,6356
2018-02-10T09:09:59.605Z,6380
2018-02-10T09:11:21.501Z,5936
2018-02-10T09:12:43.643Z,5668
2018-02-10T09:14:05.541Z,5600
2018-02-10T09:15:27.500Z,5476
2018-02-10T09:16:49.394Z,5072
2018-02-10T09:18:11.563Z,4744
2018-02-10T09:19:33.474Z,4800
2018-02-10T09:20:55.721Z,4896
2018-02-10T09:22:17.676Z,4696
2018-02-10T09:23:39.550Z,4452
2018-02-10T09:25:01.702Z,4380
2018-02-10T09:26:23.838Z,4656
2018-02-10T09:27:45.720Z,4940
2018-02-10T09:29:07.695Z,4808
2018-02-10T09:30:29.923Z,4580
2018-02-10T09:31:52.164Z,4680
2018-02-10T09:33:14.044Z,5056
2018-02-10T09:34:35.937Z,5444
2018-02-10T09:35:58.073Z,5640
2018-02-10T09:37:19.792Z,5548
2018-02-10T09:38:41.674Z,5380
2018-02-10T09:40:03.860Z,5268
2018-02-10T09:41:26.098Z,5160
2018-02-10T09:42:47.983Z,5028
2018-02-10T09:44:09.931Z,4920
2018-02-10T09:45:31.850Z,4824
2018-02-10T09:46:53.986Z,4672
2018-02-10T09:48:16.227Z,4496
2018-02-10T09:49:38.370Z,4428
2018-02-10T09:51:00.322Z,4540
2018-02-10T09:52:22.496Z,4640
2018-02-10T09:53:44.722Z,4716
2018-02-10T09:55:06.862Z,4744
2018-02-10T09:56:28.783Z,4812
2018-02-10T09:57:50.662Z,4896
2018-02-10T09:59:12.853Z,4972
2018-02-10T10:00:34.726Z,5060
2018-02-10T10:01:56.943Z,5120
2018-02-10T10:03:19.051Z,5128
2018-02-10T10:04:41.036Z,5048
2018-02-10T10:06:02.934Z,4924
2018-02-10T10:07:24.831Z,4852
2018-02-10T10:08:46.706Z,4860
2018-02-10T10:10:08.580Z,4976
2018-02-10T10:11:30.471Z,4996
2018-02-10T10:12:52.341Z,4940
2018-02-10T10:14:14.516Z,5056
2018-02-10T10:15:36.338Z,5304
2018-02-10T10:16:57.947Z,5252
2018-02-10T10:18:20.090Z,5164
2018-02-10T10:19:41.997Z,5204
2018-02-10T10:21:03.364Z,5284
2018-02-10T10:22:25.498Z,5240
2018-02-10T10:23:47.432Z,5372
2018-02-10T10:25:09.319Z,5496
2018-02-10T10:26:31.139Z,5592
2018-02-10T10:27:53.297Z,5692
2018-02-10T10:29:14.741Z,5856
2018-02-10T10:30:36.951Z,6148
2018-02-10T10:31:59.136Z,6016
2018-02-10T10:33:21.304Z,6024
2018-02-10T10:34:43.237Z,6136
2018-02-10T10:36:05.131Z,6308
2018-02-10T10:37:27.016Z,6508
2018-02-10T10:38:49.150Z,6416
2018-02-10T10:40:11.337Z,6056
2018-02-10T10:41:33.287Z,5644
2018-02-10T10:42:54.931Z,5524
2018-02-10T10:44:17.071Z,5544
2018-02-10T10:45:39.201Z,5704
2018-02-10T10:47:00.614Z,5392
2018-02-10T10:48:22.539Z,5180
2018-02-10T10:49:44.699Z,5108
2018-02-10T10:51:06.348Z,5356
2018-02-10T10:52:28.259Z,5424
2018-02-10T10:53:50.408Z,5820
2018-02-10T10:55:12.331Z,6024
2018-02-10T10:56:34.228Z,5448
2018-02-10T10:57:56.095Z,5148
2018-02-10T10:59:18.244Z,4936
2018-02-10T11:00:40.133Z,4996
2018-02-10T11:02:02.298Z,5352
2018-02-10T11:03:24.190Z,5304
2018-02-10T11:04:46.340Z,5248
2018-02-10T11:06:08.266Z,5100
2018-02-10T11:07:30.410Z,5024
2018-02-10T11:08:52.558Z,4872
2018-02-10T11:10:13.951Z,4804
2018-02-10T11:11:35.561Z,4972
2018-02-10T11:12:57.179Z,5060
2018-02-10T11:14:18.889Z,5128
2018-02-10T11:15:40.868Z,4952
2018-02-10T11:17:02.554Z,4800
2018-02-10T11:18:24.743Z,4828
2018-02-10T11:19:47.121Z,5192
2018-02-10T11:21:09.228Z,5164
2018-02-10T11:22:31.837Z,5260
2018-02-10T11:23:54.018Z,5200
2018-02-10T11:25:16.175Z,5412
2018-02-10T11:26:38.070Z,5208
2018-02-10T11:27:59.964Z,5160
2018-02-10T11:29:22.190Z,5352
2018-02-10T11:30:44.330Z,5560
2018-02-10T11:32:06.488Z,5764
2018-02-10T11:33:28.540Z,5504
2018-02-10T11:34:50.911Z,5544
2018-02-10T11:36:12.821Z,5584
2018-02-10T11:37:35.070Z,5692
2018-02-10T11:38:57.035Z,5996
2018-02-10T11:40:18.958Z,5876
2018-02-10T11:41:41.104Z,5572
2018-02-10T11:43:02.847Z,5576
2018-02-10T11:44:24.753Z,5968
2018-02-10T11:45:46.918Z,6232
2018-02-10T11:47:09.070Z,6108
2018-02-10T11:48:31.012Z,5848
2018-02-10T11:49:53.205Z,5584
2018-02-10T11:51:15.110Z,5580
2018-02-10T11:52:37.439Z,5552
2018-02-10T11:53:59.140Z,5292
2018-02-10T11:55:21.055Z,5516
2018-02-10T11:56:42.965Z,5804
2018-02-10T11:58:05.299Z,5756
2018-02-10T11:59:27.464Z,5500
2018-02-10T12:00:49.639Z,5460
2018-02-10T12:02:11.802Z,5348
2018-02-10T12:03:33.745Z,5308
2018-02-10T12:04:55.648Z,5312
2018-02-10T12:06:17.822Z,5176
2018-02-10T12:07:40.122Z,5132
2018-02-10T12:09:02.266Z,4984
2018-02-10T12:10:24.158Z,4648
2018-02-10T12:11:46.089Z,4540
2018-02-10T12:13:08.021Z,4392
2018-02-10T12:14:30.190Z,4188
2018-02-10T12:15:52.371Z,4420
2018-02-10T12:17:14.270Z,4036
2018-02-10T12:18:36.189Z,3696
2018-02-10T12:19:58.091Z,4036
2018-02-10T12:21:20.538Z,3536
2018-02-10T12:22:42.696Z,3988
2018-02-10T12:24:04.613Z,3564
2018-02-10T12:25:26.629Z,3016
2018-02-10T12:26:48.549Z,3204
2018-02-10T12:28:10.684Z,3560
2018-02-10T12:29:32.588Z,3184
2018-02-10T12:30:54.760Z,3096
2018-02-10T12:32:16.673Z,3712
2018-02-10T12:33:38.738Z,3700
2018-02-10T12:35:01.030Z,3724
2018-02-10T12:36:23.041Z,3676
2018-02-10T12:37:45.277Z,3688
2018-02-10T12:39:07.476Z,4252
2018-02-10T12:40:29.686Z,3576
2018-02-10T12:41:51.621Z,3048
2018-02-10T12:43:13.649Z,3432
2018-02-10T12:44:35.851Z,3584
2018-02-10T12:45:58.045Z,3920
2018-02-10T12:47:19.700Z,4036
2018-02-10T12:48:41.985Z,3708
2018-02-10T12:50:04.226Z,3524
2018-02-10T12:51:26.379Z,4728
2018-02-10T12:52:48.377Z,5104
2018-02-10T12:54:10.617Z,4784
2018-02-10T12:55:32.898Z,4468
2018-02-10T12:56:54.610Z,4836
2018-02-10T12:58:16.771Z,5092
2018-02-10T12:59:38.939Z,5000
2018-02-10T13:01:01.218Z,4492
2018-02-10T13:02:23.172Z,4572
2018-02-10T13:03:45.169Z,4400
2018-02-10T13:05:07.435Z,5064
2018-02-10T13:06:29.150Z,5628
2018-02-10T13:07:50.972Z,5064
2018-02-10T13:09:13.334Z,3984
2018-02-10T13:10:35.505Z,3456
2018-02-10T13:11:57.977Z,3588
2018-02-10T13:13:19.870Z,4124
2018-02-10T13:14:42.092Z,4324
2018-02-10T13:16:04.390Z,4532
2018-02-10T13:17:26.630Z,4300
2018-02-10T13:18:48.802Z,4200
2018-02-10T13:20:10.694Z,4076
2018-02-10T13:21:32.633Z,4376
2018-02-10T13:22:54.567Z,4748
2018-02-10T13:24:16.217Z,4672
2018-02-10T13:25:38.120Z,4496
2018-02-10T13:26:59.891Z,4760
2018-02-10T13:28:21.790Z,4908
2018-02-10T13:29:44.041Z,4668
2018-02-10T13:31:05.672Z,5004
2018-02-10T13:32:28.169Z,5068
2018-02-10T13:33:50.559Z,4436
2018-02-10T13:35:12.598Z,4280
2018-02-10T13:36:34.509Z,4320
2018-02-10T13:37:56.548Z,4624
2018-02-10T13:39:18.828Z,4356
2018-02-10T13:40:41.584Z,4224
2018-02-10T13:42:03.538Z,4172
2018-02-10T13:43:25.744Z,4328
2018-02-10T13:44:47.367Z,4544
2018-02-10T13:46:09.016Z,4548
2018-02-10T13:47:31.264Z,4132
2018-02-10T13:48:53.306Z,3952
2018-02-10T13:50:15.446Z,4080
2018-02-10T13:51:37.053Z,3836
2018-02-10T13:52:59.196Z,3532
2018-02-10T13:54:21.428Z,3676
2018-02-10T13:55:43.324Z,3776
2018-02-10T13:57:05.477Z,3892
2018-02-10T13:58:27.421Z,4156
2018-02-10T13:59:49.104Z,3732
2018-02-10T14:01:11.199Z,3424
2018-02-10T14:02:33.157Z,3640
2018-02-10T14:03:55.064Z,4080
2018-02-10T14:05:17.022Z,3892
2018-02-10T14:06:38.638Z,3416
2018-02-10T14:08:00.800Z,3416
2018-02-10T14:09:22.713Z,3500
2018-02-10T14:10:44.930Z,3648
2018-02-10T14:12:07.110Z,3564
2018-02-10T14:13:29.260Z,3328
2018-02-10T14:14:51.188Z,3304
2018-02-10T14:16:13.394Z,3368
2018-02-10T14:17:35.564Z,3536
2018-02-10T14:18:57.428Z,3320
2018-02-10T14:20:19.365Z,3344
2018-02-10T14:21:41.003Z,3232
2018-02-10T14:23:02.917Z,3180
2018-02-10T14:24:25.072Z,2948
2018-02-10T14:25:46.990Z,2620
2018-02-10T14:27:09.264Z,2704
2018-02-10T14:28:31.431Z,2704
2018-02-10T14:29:53.489Z,2596
2018-02-10T14:31:15.634Z,2660
2018-02-10T14:32:37.510Z,2544
2018-02-10T14:33:59.691Z,2452
2018-02-10T14:35:21.846Z,2792
2018-02-10T14:36:43.729Z,3004
2018-02-10T14:38:05.879Z,3056
2018-02-10T14:39:28.049Z,2900
2018-02-10T14:40:50.240Z,2920
2018-02-10T14:42:12.172Z,3008
2018-02-10T14:43:34.337Z,3060
2018-02-10T14:44:56.531Z,3060
2018-02-10T14:46:18.824Z,3132
2018-02-10T14:47:40.775Z,3164
2018-02-10T14:49:02.682Z,3080
2018-02-10T14:50:24.889Z,3100
2018-02-10T14:51:47.300Z,2764
2018-02-10T14:53:09.501Z,2544
2018-02-10T14:54:31.424Z,2396
2018-02-10T14:55:53.610Z,2184
2018-02-10T14:57:16.113Z,2060
2018-02-10T14:58:38.073Z,2044
2018-02-10T15:00:00.252Z,2072
2018-02-10T15:01:22.172Z,1972
2018-02-10T15:02:43.797Z,2060
2018-02-10T15:04:05.942Z,2196
2018-02-10T15:05:27.672Z,2212
2018-02-10T15:06:49.873Z,2144
2018-02-10T15:08:12.096Z,2084
2018-02-10T15:09:34.275Z,2040
2018-02-10T15:10:56.263Z,1896
2018-02-10T15:12:18.455Z,1776
2018-02-10T15:13:40.085Z,1720
2018-02-10T15:15:01.955Z,1620
2018-02-10T15:16:24.141Z,1528
2018-02-10T15:17:46.293Z,1436
2018-02-10T15:19:08.438Z,1256
2018-02-10T15:20:30.658Z,1292
2018-02-10T15:21:52.556Z,1140
2018-02-10T15:23:14.443Z,1012
2018-02-10T15:24:36.627Z,784
2018-02-10T15:25:58.792Z,636
2018-02-10T15:27:20.522Z,556
2018-02-10T15:28:42.682Z,532
2018-02-10T15:30:05.195Z,576
2018-02-10T15:31:27.323Z,612
2018-02-10T15:32:49.462Z,676
2018-02-10T15:34:11.613Z,788
2018-02-10T15:35:33.590Z,812
2018-02-10T15:36:55.235Z,816
2018-02-10T15:38:16.922Z,816
2018-02-10T15:39:39.106Z,724
2018-02-10T15:41:00.976Z,672
2018-02-10T15:42:23.148Z,616
2018-02-10T15:43:45.035Z,548
2018-02-10T15:45:06.951Z,528
2018-02-10T15:46:28.560Z,480
2018-02-10T15:47:50.182Z,416
2018-02-10T15:49:12.089Z,400
2018-02-10T15:50:34.294Z,376
2018-02-10T15:51:56.025Z,372
2018-02-10T15:53:18.130Z,364
2018-02-10T15:54:40.273Z,320
2018-02-10T15:56:02.360Z,344
2018-02-10T15:57:24.392Z,368
2018-02-10T15:58:46.540Z,304
2018-02-10T16:00:08.705Z,268
2018-02-10T16:01:30.875Z,264
2018-02-10T16:02:53.194Z,252
2018-02-10T16:04:15.069Z,232
2018-02-10T16:05:37.236Z,248
2018-02-10T16:06:59.250Z,256
2018-02-10T16:08:21.552Z,216
2018-02-10T16:09:43.530Z,212
2018-02-10T16:11:05.716Z,180
2018-02-10T16:12:27.925Z,188
2018-02-10T16:13:50.200Z,192
2018-02-10T16:15:12.356Z,180
2018-02-10T16:16:34.567Z,160
2018-02-10T16:17:56.711Z,128
2018-02-10T16:19:18.400Z,128
2018-02-10T16:20:40.333Z,128
2018-02-10T16:22:02.437Z,108
2018-02-10T16:23:24.563Z,92
2018-02-10T16:24:46.508Z,68
2018-02-10T16:26:08.697Z,56
2018-02-10T16:27:30.995Z,52
2018-02-10T16:28:53.128Z,44
2018-02-10T16:30:15.109Z,36
2018-02-10T16:31:37.352Z,28
2018-02-10T16:32:59.353Z,24
2018-02-10T16:34:21.673Z,24
2018-02-10T16:35:43.633Z,24
2018-02-10T16:37:05.806Z,24
2018-02-10T16:38:27.709Z,20
2018-02-10T16:39:49.873Z,20
2018-02-10T16:41:12.343Z,16
2018-02-10T16:42:34.514Z,12
2018-02-10T16:43:56.641Z,12
2018-02-10T16:45:18.923Z,8
2018-02-10T16:46:40.834Z,8
2018-02-10T16:48:02.592Z,8
2018-02-10T16:49:24.756Z,4
2018-02-10T16:50:46.899Z,4
2018-02-10T16:52:08.822Z,0
2018-02-10T16:53:30.743Z,4
2018-02-10T16:54:52.908Z,0
2018-02-10T16:56:14.785Z,4
2018-02-10T16:57:37.004Z,0
2018-02-10T16:58:59.023Z,0
2018-02-10T17:00:20.976Z,0
2018-02-10T17:01:42.853Z,0
2018-02-10T17:03:04.753Z,0
2018-02-10T17:04:26.911Z,0
2018-02-10T17:05:49.171Z,0
2018-02-10T17:07:11.134Z,0
2018-02-10T17:08:33.345Z,0
2018-02-10T17:09:55.535Z,0
2018-02-10T17:11:17.465Z,0
2018-02-10T17:12:39.624Z,0
2018-02-10T17:14:01.303Z,0
2018-02-10T17:15:23.342Z,0
2018-02-10T17:16:45.333Z,0
2018-02-10T17:18:07.636Z,0
2018-02-10T17:19:29.833Z,0
2018-02-10T17:20:52.008Z,0
2018-02-10T17:22:14.358Z,0
2018-02-10T17:23:36.024Z,0
2018-02-10T17:24:58.481Z,0
2018-02-10T17:26:20.671Z,0
2018-02-10T17:27:42.827Z,0
2018-02-10T17:29:05.000Z,0
2018-02-10T17:30:26.923Z,0
2018-02-10T17:31:49.076Z,0
2018-02-10T17:33:11.212Z,0
2018-02-10T17:34:33.353Z,0
2018-02-10T17:35:55.528Z,0
2018-02-10T17:37:17.283Z,0
2018-02-10T17:38:39.438Z,0
2018-02-10T17:40:01.631Z,0
2018-02-10T17:41:23.806Z,0
2018-02-10T17:42:45.977Z,0
2018-02-10T17:44:07.619Z,0
2018-02-10T17:45:29.265Z,0
2018-02-10T17:46:51.448Z,0
2018-02-10T17:48:13.706Z,0
2018-02-10T17:49:35.612Z,0
2018-02-10T17:50:57.560Z,0
2018-02-10T17:52:19.720Z,0
2018-02-10T17:53:41.611Z,0
2018-02-10T17:55:06.795Z,0
2018-02-10T17:56:28.736Z,0
2018-02-10T17:57:51.185Z,0
2018-02-10T17:59:13.359Z,0
2018-02-10T18:00:35.232Z,0
2018-02-10T18:01:57.399Z,0
2018-02-10T18:03:19.358Z,0
2018-02-10T18:04:41.576Z,0
2018-02-10T18:06:03.497Z,0
2018-02-10T18:07:25.683Z,0
2018-02-10T18:08:47.845Z,0
2018-02-10T18:10:10.005Z,0
2018-02-10T18:11:32.142Z,0
2018-02-10T18:12:54.333Z,0
2018-02-10T18:14:16.518Z,0
2018-02-10T18:15:38.736Z,0
2018-02-10T18:17:00.878Z,0
2018-02-10T18:18:22.757Z,0
2018-02-10T18:19:44.649Z,0
2018-02-10T18:21:06.538Z,0
2018-02-10T18:22:28.700Z,0
2018-02-10T18:23:50.343Z,0
2018-02-10T18:25:12.864Z,0
2018-02-10T18:26:35.135Z,0
2018-02-10T18:27:57.275Z,0
2018-02-10T18:29:19.433Z,0
2018-02-10T18:30:41.970Z,0
2018-02-10T18:32:03.863Z,0
2018-02-10T18:33:26.035Z,0
2018-02-10T18:34:48.171Z,0
2018-02-10T18:36:10.097Z,0
2018-02-10T18:37:32.294Z,0
2018-02-10T18:38:53.907Z,0
2018-02-10T18:40:15.855Z,0
2018-02-10T18:41:37.503Z,0
2018-02-10T18:42:59.233Z,0
2018-02-10T18:44:21.400Z,0
2018-02-10T18:45:43.374Z,0
2018-02-10T18:47:05.315Z,0
2018-02-10T18:48:27.254Z,0
2018-02-10T18:49:49.129Z,0
2018-02-10T18:51:11.296Z,0
2018-02-10T18:52:32.930Z,0
2018-02-10T18:53:54.870Z,0
2018-02-10T18:55:17.016Z,0
2018-02-10T18:56:39.276Z,0
2018-02-10T18:58:01.323Z,0
2018-02-10T18:59:23.614Z,0
2018-02-10T19:00:45.511Z,0
2018-02-10T19:02:07.726Z,0
2018-02-10T19:03:29.827Z,0
2018-02-10T19:04:52.013Z,0
2018-02-10T19:06:13.895Z,0
2018-02-10T19:07:35.824Z,0
2018-02-10T19:08:57.989Z,0